Aérodrome :
LOGIN :

S'inscrire | Disclaimer

   EN    FR    IT 

 










Légende :    VFR   VFR Marginal   IFR   IFR Intensif   IFR Très Intensif
Visi : 
Plafond : 
>= 8 km
>= 3000ft
5 à 8 km
1000 à 3000 ft
1500m à 5 km
500 à 1000 ft
800 à 1500m
200 à 500 ft
< 800m
< 200 ft
Symboles :   Orages  Brouillard  Fortes neiges  Fortes précipitations  Vent > 20 kt
SIGMETs :   Divers  Orages  Givrage  Turbulence  Onde Orograph.  Cendres Volcan.






- Altitude de l'aérodrome : 2096 ft
- Code IATA : AUR


LFLW - Aurillac

DERNIER METAR :
  • 301630Z AUTO 30003KT 250V350 9999 ////// 19/15 Q1016

METARs EXPIRÉS :
  • 301600Z AUTO VRB02KT 9999 ////// 18/15 Q1016
  • 301530Z AUTO VRB02KT 9999 ////// 17/14 Q1016
  • 301500Z AUTO 28004KT 240V310 9999 ////// 17/15 Q1016
  • 301430Z AUTO 30004KT 260V330 7000 ////// 16/15 Q1016
  • 301400Z AUTO 29004KT 250V340 9999 ////// 17/15 Q1016

Prévision TAF périmée.



MET'MAP, la Météo Aéronautique d'un coup d'oeil ! - Copyright ORBIFLY Décembre 2007 - Disclaimer

ORBIFLY MET'MAP TEAM :

Programmation & Développement : Alexandra Zaïnal
Sur une idée originale de : Baudouin d'Aumeries
Assistance à la programmation : Marc-Olivier Méhu
Soutien technique & logistique : Manuel Goepfert

Contact : metmap@orbifly.com




SOURCES & CREDITS :

   NOAA